sensor_id;sensor_type;location;lat;lon;timestamp;P1;durP1;ratioP1;P2;durP2;ratioP2
52380;SDS011;38310;52.796;6.942;2022-10-16T00:02:00;5.63;;;2.92;;
52380;SDS011;38310;52.796;6.942;2022-10-16T00:04:26;4.53;;;2.35;;
52380;SDS011;38310;52.796;6.942;2022-10-16T00:06:55;6.03;;;2.22;;
52380;SDS011;38310;52.796;6.942;2022-10-16T00:09:21;8.05;;;2.85;;
52380;SDS011;38310;52.796;6.942;2022-10-16T00:11:47;6.45;;;2.70;;
52380;SDS011;38310;52.796;6.942;2022-10-16T00:14:13;5.15;;;2.30;;
52380;SDS011;38310;52.796;6.942;2022-10-16T00:16:40;7.25;;;3.42;;
52380;SDS011;38310;52.796;6.942;2022-10-16T00:19:06;5.68;;;2.83;;
52380;SDS011;38310;52.796;6.942;2022-10-16T00:21:33;5.25;;;2.70;;
52380;SDS011;38310;52.796;6.942;2022-10-16T00:24:00;6.15;;;2.67;;
52380;SDS011;38310;52.796;6.942;2022-10-16T00:26:28;6.15;;;2.90;;
52380;SDS011;38310;52.796;6.942;2022-10-16T00:28:56;6.00;;;2.50;;
52380;SDS011;38310;52.796;6.942;2022-10-16T00:31:22;5.57;;;2.83;;
52380;SDS011;38310;52.796;6.942;2022-10-16T00:33:48;5.80;;;2.67;;
52380;SDS011;38310;52.796;6.942;2022-10-16T00:36:15;5.97;;;2.47;;
52380;SDS011;38310;52.796;6.942;2022-10-16T00:38:43;6.15;;;2.72;;
52380;SDS011;38310;52.796;6.942;2022-10-16T00:41:11;4.78;;;2.45;;
52380;SDS011;38310;52.796;6.942;2022-10-16T00:51:21;4.72;;;2.63;;
52380;SDS011;38310;52.796;6.942;2022-10-16T00:53:53;9.05;;;3.00;;
52380;SDS011;38310;52.796;6.942;2022-10-16T00:56:19;5.47;;;2.65;;
52380;SDS011;38310;52.796;6.942;2022-10-16T00:58:45;4.68;;;2.83;;
52380;SDS011;38310;52.796;6.942;2022-10-16T01:01:11;6.90;;;2.90;;
52380;SDS011;38310;52.796;6.942;2022-10-16T01:03:37;9.45;;;3.17;;
52380;SDS011;38310;52.796;6.942;2022-10-16T01:09:09;9.95;;;3.05;;
52380;SDS011;38310;52.796;6.942;2022-10-16T01:12:01;5.22;;;2.45;;
52380;SDS011;38310;52.796;6.942;2022-10-16T01:14:53;6.20;;;2.95;;
52380;SDS011;38310;52.796;6.942;2022-10-16T01:20:35;6.05;;;2.72;;
52380;SDS011;38310;52.796;6.942;2022-10-16T01:28:56;7.95;;;2.70;;
52380;SDS011;38310;52.796;6.942;2022-10-16T01:31:30;5.13;;;3.20;;
52380;SDS011;38310;52.796;6.942;2022-10-16T01:34:04;7.05;;;2.90;;
52380;SDS011;38310;52.796;6.942;2022-10-16T01:36:47;5.87;;;3.73;;
52380;SDS011;38310;52.796;6.942;2022-10-16T01:39:21;5.30;;;3.00;;
52380;SDS011;38310;52.796;6.942;2022-10-16T01:42:02;5.63;;;3.20;;
52380;SDS011;38310;52.796;6.942;2022-10-16T01:44:33;8.82;;;3.35;;
52380;SDS011;38310;52.796;6.942;2022-10-16T01:47:01;5.93;;;2.78;;
52380;SDS011;38310;52.796;6.942;2022-10-16T01:49:30;4.32;;;2.95;;
52380;SDS011;38310;52.796;6.942;2022-10-16T01:51:59;7.97;;;3.45;;
52380;SDS011;38310;52.796;6.942;2022-10-16T01:54:28;5.72;;;3.03;;
52380;SDS011;38310;52.796;6.942;2022-10-16T01:56:57;6.80;;;3.15;;
52380;SDS011;38310;52.796;6.942;2022-10-16T01:59:25;5.22;;;2.92;;
52380;SDS011;38310;52.796;6.942;2022-10-16T02:01:53;4.68;;;2.78;;
52380;SDS011;38310;52.796;6.942;2022-10-16T02:04:26;7.57;;;2.92;;
52380;SDS011;38310;52.796;6.942;2022-10-16T02:06:56;4.82;;;2.83;;
52380;SDS011;38310;52.796;6.942;2022-10-16T02:09:22;8.02;;;3.45;;
52380;SDS011;38310;52.796;6.942;2022-10-16T02:11:48;6.18;;;3.00;;
52380;SDS011;38310;52.796;6.942;2022-10-16T02:14:17;6.18;;;3.17;;
52380;SDS011;38310;52.796;6.942;2022-10-16T02:16:44;5.35;;;3.33;;
52380;SDS011;38310;52.796;6.942;2022-10-16T02:19:15;4.47;;;2.78;;
52380;SDS011;38310;52.796;6.942;2022-10-16T02:21:49;4.97;;;2.85;;
52380;SDS011;38310;52.796;6.942;2022-10-16T02:29:54;5.00;;;2.72;;
52380;SDS011;38310;52.796;6.942;2022-10-16T02:32:26;5.35;;;2.80;;
52380;SDS011;38310;52.796;6.942;2022-10-16T02:34:56;8.23;;;3.20;;
52380;SDS011;38310;52.796;6.942;2022-10-16T02:37:24;6.40;;;3.20;;
52380;SDS011;38310;52.796;6.942;2022-10-16T02:39:50;7.65;;;2.67;;
52380;SDS011;38310;52.796;6.942;2022-10-16T02:42:17;6.90;;;2.65;;
52380;SDS011;38310;52.796;6.942;2022-10-16T02:44:43;4.18;;;2.88;;
52380;SDS011;38310;52.796;6.942;2022-10-16T02:47:09;4.43;;;2.40;;
52380;SDS011;38310;52.796;6.942;2022-10-16T02:49:35;4.38;;;2.30;;
52380;SDS011;38310;52.796;6.942;2022-10-16T02:52:00;6.20;;;2.67;;
52380;SDS011;38310;52.796;6.942;2022-10-16T02:54:26;7.30;;;2.55;;
52380;SDS011;38310;52.796;6.942;2022-10-16T02:56:52;4.32;;;2.33;;
52380;SDS011;38310;52.796;6.942;2022-10-16T02:59:17;3.90;;;2.45;;
52380;SDS011;38310;52.796;6.942;2022-10-16T03:01:43;7.22;;;3.33;;
52380;SDS011;38310;52.796;6.942;2022-10-16T03:04:09;4.75;;;2.58;;
52380;SDS011;38310;52.796;6.942;2022-10-16T03:06:35;5.22;;;2.60;;
52380;SDS011;38310;52.796;6.942;2022-10-16T03:09:01;5.32;;;2.67;;
52380;SDS011;38310;52.796;6.942;2022-10-16T03:11:26;7.18;;;3.03;;
52380;SDS011;38310;52.796;6.942;2022-10-16T03:13:53;5.50;;;2.80;;
52380;SDS011;38310;52.796;6.942;2022-10-16T03:16:18;4.40;;;2.65;;
52380;SDS011;38310;52.796;6.942;2022-10-16T03:18:47;4.38;;;2.53;;
52380;SDS011;38310;52.796;6.942;2022-10-16T03:21:13;4.88;;;2.60;;
52380;SDS011;38310;52.796;6.942;2022-10-16T03:23:39;5.00;;;2.35;;
52380;SDS011;38310;52.796;6.942;2022-10-16T03:26:05;8.10;;;3.03;;
52380;SDS011;38310;52.796;6.942;2022-10-16T03:28:30;5.55;;;2.55;;
52380;SDS011;38310;52.796;6.942;2022-10-16T03:30:56;10.20;;;3.30;;
52380;SDS011;38310;52.796;6.942;2022-10-16T03:33:22;6.68;;;2.50;;
52380;SDS011;38310;52.796;6.942;2022-10-16T03:35:51;5.40;;;2.63;;
52380;SDS011;38310;52.796;6.942;2022-10-16T03:38:18;6.47;;;2.58;;
52380;SDS011;38310;52.796;6.942;2022-10-16T03:40:44;5.03;;;2.97;;
52380;SDS011;38310;52.796;6.942;2022-10-16T03:43:10;5.78;;;3.67;;
52380;SDS011;38310;52.796;6.942;2022-10-16T03:45:35;7.88;;;3.42;;
52380;SDS011;38310;52.796;6.942;2022-10-16T03:48:01;6.00;;;3.00;;
52380;SDS011;38310;52.796;6.942;2022-10-16T03:50:28;5.85;;;2.83;;
52380;SDS011;38310;52.796;6.942;2022-10-16T03:52:54;5.35;;;2.78;;
52380;SDS011;38310;52.796;6.942;2022-10-16T03:55:20;6.82;;;2.83;;
52380;SDS011;38310;52.796;6.942;2022-10-16T03:57:46;6.40;;;3.20;;
52380;SDS011;38310;52.796;6.942;2022-10-16T04:00:12;6.93;;;2.80;;
52380;SDS011;38310;52.796;6.942;2022-10-16T04:02:38;5.38;;;3.17;;
52380;SDS011;38310;52.796;6.942;2022-10-16T04:05:04;5.75;;;3.10;;
52380;SDS011;38310;52.796;6.942;2022-10-16T04:07:30;6.90;;;3.00;;
52380;SDS011;38310;52.796;6.942;2022-10-16T04:09:56;5.65;;;3.20;;
52380;SDS011;38310;52.796;6.942;2022-10-16T04:12:24;6.95;;;3.20;;
52380;SDS011;38310;52.796;6.942;2022-10-16T04:14:50;6.88;;;3.25;;
52380;SDS011;38310;52.796;6.942;2022-10-16T04:17:16;4.97;;;3.38;;
52380;SDS011;38310;52.796;6.942;2022-10-16T04:19:42;4.75;;;3.08;;
52380;SDS011;38310;52.796;6.942;2022-10-16T04:22:07;5.97;;;3.22;;
52380;SDS011;38310;52.796;6.942;2022-10-16T04:24:33;5.07;;;3.38;;
52380;SDS011;38310;52.796;6.942;2022-10-16T04:26:59;4.85;;;3.20;;
52380;SDS011;38310;52.796;6.942;2022-10-16T04:29:24;5.65;;;3.70;;
52380;SDS011;38310;52.796;6.942;2022-10-16T04:31:50;5.43;;;3.53;;
52380;SDS011;38310;52.796;6.942;2022-10-16T04:34:16;5.47;;;3.80;;
52380;SDS011;38310;52.796;6.942;2022-10-16T04:36:41;7.68;;;3.67;;
52380;SDS011;38310;52.796;6.942;2022-10-16T04:39:07;8.27;;;3.67;;
52380;SDS011;38310;52.796;6.942;2022-10-16T04:41:33;5.55;;;3.40;;
52380;SDS011;38310;52.796;6.942;2022-10-16T04:43:59;8.43;;;3.72;;
52380;SDS011;38310;52.796;6.942;2022-10-16T04:46:24;6.38;;;3.45;;
52380;SDS011;38310;52.796;6.942;2022-10-16T04:48:50;6.82;;;3.10;;
52380;SDS011;38310;52.796;6.942;2022-10-16T04:51:16;6.35;;;3.83;;
52380;SDS011;38310;52.796;6.942;2022-10-16T04:53:41;8.50;;;4.30;;
52380;SDS011;38310;52.796;6.942;2022-10-16T04:56:07;7.03;;;3.60;;
52380;SDS011;38310;52.796;6.942;2022-10-16T04:58:33;5.13;;;3.70;;
52380;SDS011;38310;52.796;6.942;2022-10-16T05:00:58;5.90;;;3.85;;
52380;SDS011;38310;52.796;6.942;2022-10-16T05:03:24;8.20;;;3.75;;
52380;SDS011;38310;52.796;6.942;2022-10-16T05:05:50;7.47;;;3.60;;
52380;SDS011;38310;52.796;6.942;2022-10-16T05:08:16;6.53;;;3.90;;
52380;SDS011;38310;52.796;6.942;2022-10-16T05:10:42;6.43;;;3.58;;
52380;SDS011;38310;52.796;6.942;2022-10-16T05:13:09;6.07;;;4.38;;
52380;SDS011;38310;52.796;6.942;2022-10-16T05:15:35;5.38;;;3.97;;
52380;SDS011;38310;52.796;6.942;2022-10-16T05:18:01;6.53;;;3.78;;
52380;SDS011;38310;52.796;6.942;2022-10-16T05:20:27;5.65;;;3.67;;
52380;SDS011;38310;52.796;6.942;2022-10-16T05:22:53;4.93;;;3.80;;
52380;SDS011;38310;52.796;6.942;2022-10-16T05:25:19;8.90;;;4.10;;
52380;SDS011;38310;52.796;6.942;2022-10-16T05:27:48;6.00;;;3.90;;
52380;SDS011;38310;52.796;6.942;2022-10-16T05:30:15;7.35;;;3.70;;
52380;SDS011;38310;52.796;6.942;2022-10-16T05:32:42;5.80;;;3.55;;
52380;SDS011;38310;52.796;6.942;2022-10-16T05:35:11;6.50;;;3.65;;
52380;SDS011;38310;52.796;6.942;2022-10-16T05:37:37;5.03;;;3.55;;
52380;SDS011;38310;52.796;6.942;2022-10-16T05:40:03;6.10;;;3.65;;
52380;SDS011;38310;52.796;6.942;2022-10-16T05:42:30;8.63;;;3.80;;
52380;SDS011;38310;52.796;6.942;2022-10-16T05:44:55;5.93;;;3.78;;
52380;SDS011;38310;52.796;6.942;2022-10-16T05:47:21;6.13;;;4.10;;
52380;SDS011;38310;52.796;6.942;2022-10-16T05:49:47;8.85;;;4.15;;
52380;SDS011;38310;52.796;6.942;2022-10-16T05:52:12;6.05;;;3.70;;
52380;SDS011;38310;52.796;6.942;2022-10-16T05:54:38;6.32;;;3.60;;
52380;SDS011;38310;52.796;6.942;2022-10-16T05:57:04;5.45;;;3.28;;
52380;SDS011;38310;52.796;6.942;2022-10-16T05:59:31;6.50;;;3.42;;
52380;SDS011;38310;52.796;6.942;2022-10-16T06:01:57;6.65;;;3.65;;
52380;SDS011;38310;52.796;6.942;2022-10-16T06:04:22;5.82;;;3.33;;
52380;SDS011;38310;52.796;6.942;2022-10-16T06:06:48;5.15;;;3.10;;
52380;SDS011;38310;52.796;6.942;2022-10-16T06:09:14;5.88;;;3.45;;
52380;SDS011;38310;52.796;6.942;2022-10-16T06:11:39;5.25;;;3.00;;
52380;SDS011;38310;52.796;6.942;2022-10-16T06:14:05;9.05;;;3.30;;
52380;SDS011;38310;52.796;6.942;2022-10-16T06:16:35;6.55;;;3.38;;
52380;SDS011;38310;52.796;6.942;2022-10-16T06:19:02;7.63;;;4.32;;
52380;SDS011;38310;52.796;6.942;2022-10-16T06:21:31;5.20;;;2.90;;
52380;SDS011;38310;52.796;6.942;2022-10-16T06:23:57;6.10;;;3.10;;
52380;SDS011;38310;52.796;6.942;2022-10-16T06:26:24;4.10;;;2.83;;
52380;SDS011;38310;52.796;6.942;2022-10-16T06:28:53;5.75;;;3.20;;
52380;SDS011;38310;52.796;6.942;2022-10-16T06:31:20;4.78;;;3.08;;
52380;SDS011;38310;52.796;6.942;2022-10-16T06:33:49;6.93;;;2.92;;
52380;SDS011;38310;52.796;6.942;2022-10-16T06:36:16;7.25;;;3.30;;
52380;SDS011;38310;52.796;6.942;2022-10-16T06:38:43;4.85;;;3.03;;
52380;SDS011;38310;52.796;6.942;2022-10-16T06:41:13;4.65;;;2.60;;
52380;SDS011;38310;52.796;6.942;2022-10-16T06:43:41;4.68;;;3.20;;
52380;SDS011;38310;52.796;6.942;2022-10-16T06:46:09;4.60;;;2.90;;
52380;SDS011;38310;52.796;6.942;2022-10-16T06:48:36;4.60;;;3.28;;
52380;SDS011;38310;52.796;6.942;2022-10-16T06:51:03;5.90;;;3.40;;
52380;SDS011;38310;52.796;6.942;2022-10-16T06:53:33;4.38;;;2.80;;
52380;SDS011;38310;52.796;6.942;2022-10-16T06:56:13;6.28;;;3.10;;
52380;SDS011;38310;52.796;6.942;2022-10-16T06:58:47;5.88;;;3.10;;
52380;SDS011;38310;52.796;6.942;2022-10-16T07:01:13;8.07;;;3.63;;
52380;SDS011;38310;52.796;6.942;2022-10-16T07:03:40;5.95;;;3.30;;
52380;SDS011;38310;52.796;6.942;2022-10-16T07:06:08;6.80;;;3.60;;
52380;SDS011;38310;52.796;6.942;2022-10-16T07:08:35;7.57;;;3.25;;
52380;SDS011;38310;52.796;6.942;2022-10-16T07:11:04;9.73;;;3.90;;
52380;SDS011;38310;52.796;6.942;2022-10-16T07:13:35;6.53;;;3.30;;
52380;SDS011;38310;52.796;6.942;2022-10-16T07:16:09;4.22;;;2.80;;
52380;SDS011;38310;52.796;6.942;2022-10-16T07:18:40;8.10;;;3.58;;
52380;SDS011;38310;52.796;6.942;2022-10-16T07:21:18;6.40;;;3.30;;
52380;SDS011;38310;52.796;6.942;2022-10-16T07:23:53;5.13;;;3.30;;
52380;SDS011;38310;52.796;6.942;2022-10-16T07:26:21;5.82;;;2.85;;
52380;SDS011;38310;52.796;6.942;2022-10-16T07:28:47;6.32;;;2.97;;
52380;SDS011;38310;52.796;6.942;2022-10-16T07:31:14;6.30;;;2.95;;
52380;SDS011;38310;52.796;6.942;2022-10-16T07:33:41;5.18;;;3.05;;
52380;SDS011;38310;52.796;6.942;2022-10-16T07:36:09;5.78;;;3.33;;
52380;SDS011;38310;52.796;6.942;2022-10-16T07:38:35;6.35;;;3.25;;
52380;SDS011;38310;52.796;6.942;2022-10-16T07:41:05;5.72;;;2.72;;
52380;SDS011;38310;52.796;6.942;2022-10-16T07:43:32;4.32;;;2.83;;
52380;SDS011;38310;52.796;6.942;2022-10-16T07:45:58;5.72;;;3.25;;
52380;SDS011;38310;52.796;6.942;2022-10-16T07:48:26;7.03;;;3.05;;
52380;SDS011;38310;52.796;6.942;2022-10-16T07:51:01;6.40;;;2.85;;
52380;SDS011;38310;52.796;6.942;2022-10-16T07:53:28;5.50;;;2.78;;
52380;SDS011;38310;52.796;6.942;2022-10-16T07:56:01;7.18;;;3.20;;
52380;SDS011;38310;52.796;6.942;2022-10-16T07:58:28;8.40;;;3.33;;
52380;SDS011;38310;52.796;6.942;2022-10-16T08:00:54;6.30;;;3.13;;
52380;SDS011;38310;52.796;6.942;2022-10-16T08:03:20;7.18;;;3.22;;
52380;SDS011;38310;52.796;6.942;2022-10-16T08:05:46;8.80;;;2.70;;
52380;SDS011;38310;52.796;6.942;2022-10-16T08:08:13;6.97;;;3.00;;
52380;SDS011;38310;52.796;6.942;2022-10-16T08:10:39;6.38;;;2.92;;
52380;SDS011;38310;52.796;6.942;2022-10-16T08:13:05;5.22;;;2.72;;
52380;SDS011;38310;52.796;6.942;2022-10-16T08:15:31;6.40;;;2.67;;
52380;SDS011;38310;52.796;6.942;2022-10-16T08:17:58;5.32;;;2.67;;
52380;SDS011;38310;52.796;6.942;2022-10-16T08:20:28;6.95;;;2.33;;
52380;SDS011;38310;52.796;6.942;2022-10-16T08:22:55;8.05;;;2.80;;
52380;SDS011;38310;52.796;6.942;2022-10-16T08:25:21;8.02;;;2.38;;
52380;SDS011;38310;52.796;6.942;2022-10-16T08:27:47;4.80;;;2.30;;
52380;SDS011;38310;52.796;6.942;2022-10-16T08:30:13;4.88;;;2.35;;
52380;SDS011;38310;52.796;6.942;2022-10-16T08:32:40;5.85;;;2.42;;
52380;SDS011;38310;52.796;6.942;2022-10-16T08:35:07;4.53;;;2.10;;
52380;SDS011;38310;52.796;6.942;2022-10-16T08:37:34;5.13;;;2.80;;
52380;SDS011;38310;52.796;6.942;2022-10-16T08:40:00;5.35;;;2.30;;
52380;SDS011;38310;52.796;6.942;2022-10-16T08:42:44;6.05;;;2.45;;
52380;SDS011;38310;52.796;6.942;2022-10-16T08:50:57;6.90;;;2.22;;
52380;SDS011;38310;52.796;6.942;2022-10-16T08:53:24;4.35;;;2.70;;
52380;SDS011;38310;52.796;6.942;2022-10-16T08:56:21;4.75;;;2.33;;
52380;SDS011;38310;52.796;6.942;2022-10-16T08:58:47;6.28;;;2.30;;
52380;SDS011;38310;52.796;6.942;2022-10-16T09:01:15;4.25;;;2.30;;
52380;SDS011;38310;52.796;6.942;2022-10-16T09:06:30;4.15;;;2.10;;
52380;SDS011;38310;52.796;6.942;2022-10-16T09:09:15;6.25;;;2.55;;
52380;SDS011;38310;52.796;6.942;2022-10-16T09:11:47;4.07;;;2.35;;
52380;SDS011;38310;52.796;6.942;2022-10-16T09:17:48;4.93;;;2.50;;
52380;SDS011;38310;52.796;6.942;2022-10-16T09:22:47;5.38;;;2.50;;
52380;SDS011;38310;52.796;6.942;2022-10-16T09:25:18;8.07;;;2.53;;
52380;SDS011;38310;52.796;6.942;2022-10-16T09:27:47;7.15;;;3.72;;
52380;SDS011;38310;52.796;6.942;2022-10-16T09:30:15;14.70;;;3.10;;
52380;SDS011;38310;52.796;6.942;2022-10-16T09:32:43;5.28;;;2.90;;
52380;SDS011;38310;52.796;6.942;2022-10-16T09:35:13;7.63;;;2.22;;
52380;SDS011;38310;52.796;6.942;2022-10-16T09:37:42;5.45;;;2.22;;
52380;SDS011;38310;52.796;6.942;2022-10-16T09:40:23;6.20;;;2.47;;
52380;SDS011;38310;52.796;6.942;2022-10-16T09:43:13;7.32;;;1.80;;
52380;SDS011;38310;52.796;6.942;2022-10-16T09:45:53;9.50;;;3.13;;
52380;SDS011;38310;52.796;6.942;2022-10-16T09:48:20;7.85;;;4.70;;
52380;SDS011;38310;52.796;6.942;2022-10-16T09:50:55;5.05;;;2.08;;
52380;SDS011;38310;52.796;6.942;2022-10-16T09:53:26;6.90;;;2.20;;
52380;SDS011;38310;52.796;6.942;2022-10-16T09:56:04;7.20;;;2.25;;
52380;SDS011;38310;52.796;6.942;2022-10-16T09:58:31;4.63;;;1.95;;
52380;SDS011;38310;52.796;6.942;2022-10-16T10:00:58;4.32;;;1.95;;
52380;SDS011;38310;52.796;6.942;2022-10-16T10:03:37;6.00;;;1.95;;
52380;SDS011;38310;52.796;6.942;2022-10-16T10:06:07;5.80;;;2.28;;
52380;SDS011;38310;52.796;6.942;2022-10-16T10:08:56;7.18;;;1.85;;
52380;SDS011;38310;52.796;6.942;2022-10-16T10:17:09;12.23;;;3.17;;
52380;SDS011;38310;52.796;6.942;2022-10-16T10:19:47;13.48;;;1.98;;
52380;SDS011;38310;52.796;6.942;2022-10-16T10:22:23;6.03;;;2.00;;
52380;SDS011;38310;52.796;6.942;2022-10-16T10:36:14;4.38;;;1.70;;
52380;SDS011;38310;52.796;6.942;2022-10-16T10:38:50;7.00;;;2.20;;
52380;SDS011;38310;52.796;6.942;2022-10-16T11:00:45;6.60;;;1.92;;
52380;SDS011;38310;52.796;6.942;2022-10-16T11:05:59;8.07;;;2.38;;
52380;SDS011;38310;52.796;6.942;2022-10-16T11:09:02;5.78;;;2.10;;
52380;SDS011;38310;52.796;6.942;2022-10-16T11:11:35;4.88;;;1.85;;
52380;SDS011;38310;52.796;6.942;2022-10-16T11:14:11;6.90;;;2.15;;
52380;SDS011;38310;52.796;6.942;2022-10-16T11:16:56;8.45;;;1.92;;
52380;SDS011;38310;52.796;6.942;2022-10-16T11:24:45;9.60;;;2.60;;
52380;SDS011;38310;52.796;6.942;2022-10-16T11:27:17;5.85;;;1.85;;
52380;SDS011;38310;52.796;6.942;2022-10-16T11:30:05;9.10;;;2.30;;
52380;SDS011;38310;52.796;6.942;2022-10-16T11:38:02;6.60;;;1.85;;
52380;SDS011;38310;52.796;6.942;2022-10-16T11:40:37;8.63;;;2.55;;
52380;SDS011;38310;52.796;6.942;2022-10-16T11:43:12;6.88;;;2.00;;
52380;SDS011;38310;52.796;6.942;2022-10-16T11:45:42;8.38;;;2.38;;
52380;SDS011;38310;52.796;6.942;2022-10-16T11:51:32;8.35;;;1.90;;
52380;SDS011;38310;52.796;6.942;2022-10-16T11:54:52;6.85;;;1.75;;
52380;SDS011;38310;52.796;6.942;2022-10-16T11:57:24;5.55;;;1.95;;
52380;SDS011;38310;52.796;6.942;2022-10-16T12:05:21;9.35;;;1.70;;
52380;SDS011;38310;52.796;6.942;2022-10-16T12:10:29;6.72;;;1.70;;
52380;SDS011;38310;52.796;6.942;2022-10-16T12:13:03;9.25;;;2.30;;
52380;SDS011;38310;52.796;6.942;2022-10-16T12:15:31;7.55;;;1.80;;
52380;SDS011;38310;52.796;6.942;2022-10-16T12:17:58;11.52;;;1.75;;
52380;SDS011;38310;52.796;6.942;2022-10-16T12:20:31;9.40;;;1.95;;
52380;SDS011;38310;52.796;6.942;2022-10-16T12:23:04;6.30;;;1.65;;
52380;SDS011;38310;52.796;6.942;2022-10-16T12:25:34;7.32;;;2.05;;
52380;SDS011;38310;52.796;6.942;2022-10-16T12:30:32;7.60;;;1.90;;
52380;SDS011;38310;52.796;6.942;2022-10-16T12:33:01;8.88;;;1.75;;
52380;SDS011;38310;52.796;6.942;2022-10-16T12:35:32;5.97;;;1.67;;
52380;SDS011;38310;52.796;6.942;2022-10-16T12:38:04;6.93;;;1.50;;
52380;SDS011;38310;52.796;6.942;2022-10-16T12:40:40;4.90;;;1.83;;
52380;SDS011;38310;52.796;6.942;2022-10-16T12:43:28;6.63;;;1.95;;
52380;SDS011;38310;52.796;6.942;2022-10-16T12:46:01;6.18;;;1.63;;
52380;SDS011;38310;52.796;6.942;2022-10-16T12:48:51;6.40;;;2.15;;
52380;SDS011;38310;52.796;6.942;2022-10-16T12:51:25;6.13;;;1.58;;
52380;SDS011;38310;52.796;6.942;2022-10-16T12:54:04;5.70;;;1.67;;
52380;SDS011;38310;52.796;6.942;2022-10-16T12:56:58;7.80;;;2.03;;
52380;SDS011;38310;52.796;6.942;2022-10-16T13:10:28;8.65;;;1.90;;
52380;SDS011;38310;52.796;6.942;2022-10-16T13:13:40;7.50;;;2.35;;
52380;SDS011;38310;52.796;6.942;2022-10-16T13:19:16;4.75;;;1.50;;
52380;SDS011;38310;52.796;6.942;2022-10-16T13:27:37;4.13;;;1.42;;
52380;SDS011;38310;52.796;6.942;2022-10-16T13:30:39;5.70;;;1.70;;
52380;SDS011;38310;52.796;6.942;2022-10-16T13:33:17;4.25;;;1.38;;
52380;SDS011;38310;52.796;6.942;2022-10-16T13:35:54;7.07;;;1.60;;
52380;SDS011;38310;52.796;6.942;2022-10-16T13:38:28;5.43;;;1.73;;
52380;SDS011;38310;52.796;6.942;2022-10-16T13:40:59;5.18;;;1.88;;
52380;SDS011;38310;52.796;6.942;2022-10-16T13:43:46;6.22;;;1.70;;
52380;SDS011;38310;52.796;6.942;2022-10-16T13:46:16;5.65;;;1.75;;
52380;SDS011;38310;52.796;6.942;2022-10-16T13:48:44;4.82;;;1.70;;
52380;SDS011;38310;52.796;6.942;2022-10-16T13:51:21;7.72;;;1.70;;
52380;SDS011;38310;52.796;6.942;2022-10-16T13:53:46;5.97;;;1.30;;
52380;SDS011;38310;52.796;6.942;2022-10-16T13:56:16;10.93;;;1.83;;
52380;SDS011;38310;52.796;6.942;2022-10-16T13:58:44;9.45;;;1.83;;
52380;SDS011;38310;52.796;6.942;2022-10-16T14:01:18;8.77;;;1.83;;
52380;SDS011;38310;52.796;6.942;2022-10-16T14:03:47;8.82;;;1.98;;
52380;SDS011;38310;52.796;6.942;2022-10-16T14:06:14;9.65;;;2.00;;
52380;SDS011;38310;52.796;6.942;2022-10-16T14:08:44;8.40;;;1.73;;
52380;SDS011;38310;52.796;6.942;2022-10-16T14:11:19;3.72;;;1.40;;
52380;SDS011;38310;52.796;6.942;2022-10-16T14:13:49;5.30;;;1.42;;
52380;SDS011;38310;52.796;6.942;2022-10-16T14:16:16;3.45;;;1.33;;
52380;SDS011;38310;52.796;6.942;2022-10-16T14:19:02;7.47;;;1.98;;
52380;SDS011;38310;52.796;6.942;2022-10-16T14:21:31;6.10;;;1.33;;
52380;SDS011;38310;52.796;6.942;2022-10-16T14:23:59;9.50;;;1.90;;
52380;SDS011;38310;52.796;6.942;2022-10-16T14:26:40;7.47;;;1.85;;
52380;SDS011;38310;52.796;6.942;2022-10-16T14:29:10;5.90;;;1.95;;
52380;SDS011;38310;52.796;6.942;2022-10-16T14:31:40;8.27;;;1.90;;
52380;SDS011;38310;52.796;6.942;2022-10-16T14:37:22;7.18;;;2.10;;
52380;SDS011;38310;52.796;6.942;2022-10-16T14:39:49;7.97;;;1.73;;
52380;SDS011;38310;52.796;6.942;2022-10-16T14:42:20;7.43;;;1.95;;
52380;SDS011;38310;52.796;6.942;2022-10-16T14:44:51;4.95;;;2.45;;
52380;SDS011;38310;52.796;6.942;2022-10-16T14:47:19;7.03;;;1.77;;
52380;SDS011;38310;52.796;6.942;2022-10-16T14:49:50;8.88;;;2.05;;
52380;SDS011;38310;52.796;6.942;2022-10-16T14:52:16;8.23;;;2.92;;
52380;SDS011;38310;52.796;6.942;2022-10-16T14:54:42;8.15;;;2.30;;
52380;SDS011;38310;52.796;6.942;2022-10-16T14:57:18;7.13;;;2.30;;
52380;SDS011;38310;52.796;6.942;2022-10-16T14:59:51;6.03;;;2.20;;
52380;SDS011;38310;52.796;6.942;2022-10-16T15:05:04;5.47;;;1.85;;
52380;SDS011;38310;52.796;6.942;2022-10-16T15:07:44;8.18;;;2.55;;
52380;SDS011;38310;52.796;6.942;2022-10-16T15:10:11;6.63;;;2.20;;
52380;SDS011;38310;52.796;6.942;2022-10-16T15:12:38;6.47;;;2.28;;
52380;SDS011;38310;52.796;6.942;2022-10-16T15:15:27;8.02;;;2.00;;
52380;SDS011;38310;52.796;6.942;2022-10-16T15:18:02;7.32;;;2.00;;
52380;SDS011;38310;52.796;6.942;2022-10-16T15:20:35;6.70;;;1.80;;
52380;SDS011;38310;52.796;6.942;2022-10-16T15:23:02;8.82;;;2.40;;
52380;SDS011;38310;52.796;6.942;2022-10-16T15:28:12;6.53;;;2.15;;
52380;SDS011;38310;52.796;6.942;2022-10-16T15:30:39;5.05;;;2.10;;
52380;SDS011;38310;52.796;6.942;2022-10-16T15:33:09;6.32;;;2.63;;
52380;SDS011;38310;52.796;6.942;2022-10-16T15:35:38;7.47;;;1.92;;
52380;SDS011;38310;52.796;6.942;2022-10-16T15:38:04;4.53;;;1.85;;
52380;SDS011;38310;52.796;6.942;2022-10-16T15:40:29;8.63;;;2.20;;
52380;SDS011;38310;52.796;6.942;2022-10-16T15:42:55;6.32;;;2.45;;
52380;SDS011;38310;52.796;6.942;2022-10-16T15:45:21;7.20;;;2.10;;
52380;SDS011;38310;52.796;6.942;2022-10-16T15:47:47;7.50;;;2.47;;
52380;SDS011;38310;52.796;6.942;2022-10-16T15:50:14;8.02;;;2.88;;
52380;SDS011;38310;52.796;6.942;2022-10-16T15:52:40;5.13;;;2.15;;
52380;SDS011;38310;52.796;6.942;2022-10-16T15:55:07;9.23;;;2.80;;
52380;SDS011;38310;52.796;6.942;2022-10-16T15:57:34;6.85;;;2.50;;
52380;SDS011;38310;52.796;6.942;2022-10-16T16:00:03;6.68;;;2.30;;
52380;SDS011;38310;52.796;6.942;2022-10-16T16:02:31;5.65;;;2.20;;
52380;SDS011;38310;52.796;6.942;2022-10-16T16:04:57;6.32;;;2.58;;
52380;SDS011;38310;52.796;6.942;2022-10-16T16:07:22;7.68;;;2.67;;
52380;SDS011;38310;52.796;6.942;2022-10-16T16:09:48;5.82;;;2.65;;
52380;SDS011;38310;52.796;6.942;2022-10-16T16:12:14;8.05;;;2.58;;
52380;SDS011;38310;52.796;6.942;2022-10-16T16:14:39;5.90;;;2.63;;
52380;SDS011;38310;52.796;6.942;2022-10-16T16:17:05;9.68;;;2.67;;
52380;SDS011;38310;52.796;6.942;2022-10-16T16:19:31;11.77;;;3.97;;
52380;SDS011;38310;52.796;6.942;2022-10-16T16:21:58;7.43;;;2.60;;
52380;SDS011;38310;52.796;6.942;2022-10-16T16:24:23;7.25;;;2.72;;
52380;SDS011;38310;52.796;6.942;2022-10-16T16:26:49;14.70;;;3.97;;
52380;SDS011;38310;52.796;6.942;2022-10-16T16:29:15;9.45;;;3.30;;
52380;SDS011;38310;52.796;6.942;2022-10-16T16:31:41;9.02;;;3.58;;
52380;SDS011;38310;52.796;6.942;2022-10-16T16:34:08;6.95;;;3.83;;
52380;SDS011;38310;52.796;6.942;2022-10-16T16:39:51;7.30;;;2.70;;
52380;SDS011;38310;52.796;6.942;2022-10-16T16:42:16;6.88;;;2.60;;
52380;SDS011;38310;52.796;6.942;2022-10-16T16:44:42;11.63;;;3.60;;
52380;SDS011;38310;52.796;6.942;2022-10-16T16:47:09;5.45;;;3.40;;
52380;SDS011;38310;52.796;6.942;2022-10-16T16:49:35;7.47;;;3.50;;
52380;SDS011;38310;52.796;6.942;2022-10-16T16:52:00;6.88;;;3.10;;
52380;SDS011;38310;52.796;6.942;2022-10-16T16:54:26;6.35;;;3.70;;
52380;SDS011;38310;52.796;6.942;2022-10-16T16:56:52;10.15;;;3.75;;
52380;SDS011;38310;52.796;6.942;2022-10-16T16:59:18;8.60;;;3.53;;
52380;SDS011;38310;52.796;6.942;2022-10-16T17:01:45;9.15;;;4.00;;
52380;SDS011;38310;52.796;6.942;2022-10-16T17:04:11;8.23;;;4.60;;
52380;SDS011;38310;52.796;6.942;2022-10-16T17:06:40;16.85;;;11.20;;
52380;SDS011;38310;52.796;6.942;2022-10-16T17:09:06;13.13;;;8.50;;
52380;SDS011;38310;52.796;6.942;2022-10-16T17:11:32;13.35;;;8.43;;
52380;SDS011;38310;52.796;6.942;2022-10-16T17:13:58;9.60;;;5.95;;
52380;SDS011;38310;52.796;6.942;2022-10-16T17:16:26;13.20;;;6.05;;
52380;SDS011;38310;52.796;6.942;2022-10-16T17:18:55;14.57;;;5.97;;